Flight Track Log - Related Links

Times and Time Zones

All times are in EDT time to prevent confusion due to time zone crossing. See the CCA1754 flight status page for this flight to view local times or setup timezone preferences in your user account.

Time Position Orientation Groundspeed Altitude Reporting Facility
EDT Latitude Longitude Course Direction KTS MPH feet Rate Location/Type
Wed 08:00:00 AM 25.2660 103.3742 68° East  Level Estimated
Wed 08:01:00 AM 25.3068 103.4857 68° East  Level Estimated
Wed 08:02:00 AM 25.3475 103.5972 68° East  Level Estimated
Wed 08:03:00 AM 25.3881 103.7088 68° East  Level Estimated
Wed 08:04:00 AM 25.4287 103.8205 68° East  Level Estimated
Wed 08:05:00 AM 25.4691 103.9323 68° East  Level Estimated
Wed 08:06:00 AM 25.5095 104.0441 68° East  Level Estimated
Wed 08:07:00 AM 25.5498 104.1560 68° East  Level Estimated
Wed 08:08:00 AM 25.5900 104.2680 68° East  Level Estimated
Wed 08:09:00 AM 25.6301 104.3801 68° East  Level Estimated
Wed 08:10:00 AM 25.6702 104.4922 68° East  Level Estimated
Wed 08:11:00 AM 25.7101 104.6044 68° East  Level Estimated
Wed 08:12:00 AM 25.7500 104.7167 68° East  Level Estimated
Wed 08:13:00 AM 25.7897 104.8290 69° East  Level Estimated
Wed 08:14:00 AM 25.8294 104.9415 69° East  Level Estimated
Wed 08:15:00 AM 25.8690 105.0540 69° East  Level Estimated
Wed 08:16:00 AM 25.9086 105.1666 69° East  Level Estimated
Wed 08:17:00 AM 25.9480 105.2792 69° East  Level Estimated
Wed 08:18:00 AM 25.9873 105.3920 69° East  Level Estimated
Wed 08:19:00 AM 26.0266 105.5048 69° East  Level Estimated
Wed 08:20:00 AM 26.0658 105.6177 69° East  Level Estimated
Wed 08:21:00 AM 26.1048 105.7306 69° East  Level Estimated
Wed 08:22:00 AM 26.1438 105.8437 69° East  Level Estimated
Wed 08:23:00 AM 26.1827 105.9568 69° East  Level Estimated
Wed 08:24:00 AM 26.2215 106.0700 69° East  Level Estimated
Wed 08:25:00 AM 26.2603 106.1832 69° East  Level Estimated
Wed 08:26:00 AM 26.2989 106.2966 69° East  Level Estimated
Wed 08:27:00 AM 26.3375 106.4100 69° East  Level Estimated
Wed 08:28:00 AM 26.3759 106.5235 69° East  Level Estimated
Wed 08:29:00 AM 26.4143 106.6370 69° East  Level Estimated
Wed 08:30:00 AM 26.4526 106.7507 69° East  Level Estimated
Wed 08:31:00 AM 26.4908 106.8644 69° East  Level Estimated
Wed 08:32:00 AM 26.5289 106.9782 69° East  Level Estimated
Wed 08:33:00 AM 26.5669 107.0920 70° East  Level Estimated
Wed 08:34:00 AM 26.6048 107.2060 70° East  Level Estimated
Wed 08:35:00 AM 26.6426 107.3200 70° East  Level Estimated
Wed 08:36:00 AM 26.6804 107.4341 70° East  Level Estimated
Wed 08:37:00 AM 26.7180 107.5483 70° East  Level Estimated
Wed 08:38:00 AM 26.7556 107.6625 70° East  Level Estimated
Wed 08:39:00 AM 26.7930 107.7768 70° East  Level Estimated
Wed 08:40:00 AM 26.8304 107.8912 70° East  Level Estimated
Wed 08:41:00 AM 26.8677 108.0057 70° East  Level Estimated
Wed 08:42:00 AM 26.9049 108.1202 70° East  Level Estimated
Wed 08:43:00 AM 26.9419 108.2349 70° East  Level Estimated
Wed 08:44:00 AM 26.9790 108.3496 70° East  Level Estimated
Wed 08:45:00 AM 27.0159 108.4643 70° East  Level Estimated
Wed 08:46:00 AM 27.0527 108.5792 70° East  Level Estimated
Wed 08:47:00 AM 27.0894 108.6941 70° East  Level Estimated
Wed 08:48:00 AM 27.1260 108.8091 70° East  Level Estimated
Wed 08:49:00 AM 27.1626 108.9242 70° East  Level Estimated
Wed 08:50:00 AM 27.1990 109.0393 70° East  Level Estimated
Wed 08:51:00 AM 27.2354 109.1545 70° East  Level Estimated
Wed 08:52:00 AM 27.2716 109.2699 70° East  Level Estimated
Wed 08:53:00 AM 27.3078 109.3852 71° East  Level Estimated
Wed 08:54:00 AM 27.3438 109.5007 71° East  Level Estimated
Wed 08:55:00 AM 27.3798 109.6162 71° East  Level Estimated
Wed 08:56:00 AM 27.4157 109.7318 71° East  Level Estimated
Wed 08:57:00 AM 27.4515 109.8475 71° East  Level Estimated
Wed 08:58:00 AM 27.4871 109.9632 71° East  Level Estimated
Wed 08:59:00 AM 27.5227 110.0790 71° East  Level Estimated
Wed 09:00:00 AM 27.5582 110.1949 71° East  Level Estimated
Wed 09:01:00 AM 27.5936 110.3109 71° East  Level Estimated
Wed 09:02:00 AM 27.6289 110.4269 71° East  Level Estimated
Wed 09:03:00 AM 27.6641 110.5431 71° East  Level Estimated
Wed 09:04:00 AM 27.6992 110.6593 71° East  Level Estimated
Wed 09:05:00 AM 27.7342 110.7755 71° East  Level Estimated
Wed 09:06:00 AM 27.7691 110.8919 71° East  Level Estimated
Wed 09:07:00 AM 27.8039 111.0083 71° East  Level Estimated
Wed 09:08:00 AM 27.8386 111.1248 71° East  Level Estimated
Wed 09:09:00 AM 27.8733 111.2414 71° East  Level Estimated
Wed 09:10:00 AM 27.9078 111.3580 71° East  Level Estimated
Wed 09:11:00 AM 27.9422 111.4747 72° East  Level Estimated
Wed 09:12:00 AM 27.9765 111.5915 72° East  Level Estimated
Wed 09:13:00 AM 28.0107 111.7084 72° East  Level Estimated
Wed 09:14:00 AM 28.0449 111.8253 72° East  Level Estimated
Wed 09:15:00 AM 28.0789 111.9424 72° East  Level Estimated
Wed 09:16:00 AM 28.1128 112.0595 72° East  Level Estimated
Wed 09:17:00 AM 28.1467 112.1766 72° East  Level Estimated
Wed 09:18:00 AM 28.1804 112.2939 72° East  Level Estimated
Wed 09:19:00 AM 28.2140 112.4112 72° East  Level Estimated
Wed 09:20:00 AM 28.2475 112.5286 72° East  Level Estimated
Wed 09:21:00 AM 28.2810 112.6460 72° East  Level Estimated
Wed 09:22:00 AM 28.3143 112.7635 72° East  Level Estimated
Wed 09:23:00 AM 28.3475 112.8812 72° East  Level Estimated
Wed 09:24:00 AM 28.3806 112.9988 72° East  Level Estimated
Wed 09:25:00 AM 28.4137 113.1166 72° East  Level Estimated
Wed 09:26:00 AM 28.4466 113.2344 72° East  Level Estimated
Wed 09:27:00 AM 28.4794 113.3523 72° East  Level Estimated
Wed 09:28:00 AM 28.5121 113.4703 72° East  Level Estimated
Wed 09:29:00 AM 28.5448 113.5883 73° East  Level Estimated
Wed 09:30:00 AM 28.5773 113.7065 73° East  Level Estimated
Wed 09:31:00 AM 28.6097 113.8247 73° East  Level Estimated
Wed 09:32:00 AM 28.6420 113.9429 73° East  Level Estimated
Wed 09:33:00 AM 28.6742 114.0613 73° East  Level Estimated
Wed 09:34:00 AM 28.7063 114.1797 73° East  Level Estimated
Wed 09:35:00 AM 28.7383 114.2981 73° East  Level Estimated
Wed 09:36:00 AM 28.7702 114.4167 73° East  Level Estimated
Wed 09:37:00 AM 28.8020 114.5353 73° East  Level Estimated
Wed 09:38:00 AM 28.8337 114.6540 73° East  Level Estimated
Wed 09:39:00 AM 28.8653 114.7728 73° East  Level Estimated
Wed 09:40:00 AM 28.8967 114.8917 73° East  Level Estimated
Wed 09:41:00 AM 28.9281 115.0106 73° East  Level Estimated
Wed 09:42:00 AM 28.9594 115.1296 73° East  Level Estimated
Wed 09:43:00 AM 28.9906 115.2486 73° East  Level Estimated
Wed 09:44:00 AM 29.0216 115.3678 73° East  Level Estimated
Wed 09:45:00 AM 29.0526 115.4870 73° East  Level Estimated
Wed 09:46:00 AM 29.0834 115.6062 73° East  Level Estimated
Wed 09:47:00 AM 29.1142 115.7256 74° East  Level Estimated
Wed 09:48:00 AM 29.1448 115.8450 74° East  Level Estimated
Wed 09:49:00 AM 29.1754 115.9645 74° East  Level Estimated
Wed 09:50:00 AM 29.2058 116.0841 74° East  Level Estimated
Wed 09:51:00 AM 29.2361 116.2037 74° East  Level Estimated
Wed 09:52:00 AM 29.2663 116.3234 74° East  Level Estimated
Wed 09:53:00 AM 29.2964 116.4432 74° East  Level Estimated
Wed 09:54:00 AM 29.3264 116.5630 74° East  Level Estimated
Wed 09:55:00 AM 29.3563 116.6829 74° East  Level Estimated
Wed 09:56:00 AM 29.3861 116.8029 74° East  Level Estimated
Wed 09:57:00 AM 29.4158 116.9229 74° East  Level Estimated
Wed 09:58:00 AM 29.4454 117.0431 74° East  Level Estimated
Wed 09:59:00 AM 29.4748 117.1633 74° East  Level Estimated
Wed 10:00:00 AM 29.5042 117.2835 74° East  Level Estimated
Wed 10:01:00 AM 29.5334 117.4038 74° East  Level Estimated
Wed 10:02:00 AM 29.5626 117.5242 74° East  Level Estimated
Wed 10:03:00 AM 29.5916 117.6447 74° East  Level Estimated
Wed 10:04:00 AM 29.6205 117.7653 75° East  Level Estimated
Wed 10:05:00 AM 29.6493 117.8859 75° East  Level Estimated
Wed 10:06:00 AM 29.6780 118.0065 75° East  Level Estimated
Wed 10:07:00 AM 29.7066 118.1273 75° East  Level Estimated
Wed 10:08:00 AM 29.7351 118.2481 75° East  Level Estimated
Wed 10:09:00 AM 29.7635 118.3690 75° East  Level Estimated
Wed 10:10:00 AM 29.7918 118.4900 75° East  Level Estimated

Login

Don't have an account? Register now (free) for customized features, flight alerts, and more!